createdAt,value
2023-04-28T00:00:52.984Z,23.55
2023-04-28T00:03:19.836Z,23.54
2023-04-28T00:05:47.534Z,23.52
2023-04-28T00:08:14.262Z,23.50
2023-04-28T00:10:41.202Z,23.51
2023-04-28T00:13:07.747Z,23.49
2023-04-28T00:15:34.065Z,23.46
2023-04-28T00:18:02.120Z,23.46
2023-04-28T00:20:29.179Z,23.43
2023-04-28T00:22:56.280Z,23.43
2023-04-28T00:25:24.781Z,23.41
2023-04-28T00:27:51.201Z,23.38
2023-04-28T00:33:07.860Z,23.32
2023-04-28T00:35:34.780Z,23.31
2023-04-28T00:38:01.622Z,23.29
2023-04-28T00:42:57.097Z,23.21
2023-04-28T00:45:23.403Z,23.20
2023-04-28T00:47:51.925Z,23.18
2023-04-28T00:50:20.544Z,23.14
2023-04-28T00:52:49.074Z,23.11
2023-04-28T00:55:17.426Z,23.10
2023-04-28T00:57:44.287Z,23.06
2023-04-28T01:00:11.788Z,23.06
2023-04-28T01:02:39.025Z,23.04
2023-04-28T01:05:07.177Z,23.01
2023-04-28T01:07:34.848Z,23.01
2023-04-28T01:10:03.527Z,22.98
2023-04-28T01:12:30.657Z,22.97
2023-04-28T01:14:56.973Z,22.94
2023-04-28T01:17:23.728Z,22.93
2023-04-28T01:19:50.504Z,22.93
2023-04-28T01:22:18.048Z,22.92
2023-04-28T01:24:45.007Z,22.90
2023-04-28T01:27:14.484Z,22.92
2023-04-28T01:29:40.978Z,22.88
2023-04-28T01:32:08.360Z,22.86
2023-04-28T01:34:38.788Z,22.85
2023-04-28T01:37:09.912Z,22.83
2023-04-28T01:39:41.576Z,22.80
2023-04-28T01:42:08.172Z,22.76
2023-04-28T01:44:35.197Z,22.74
2023-04-28T01:47:01.784Z,22.72
2023-04-28T01:49:29.582Z,22.72
2023-04-28T01:51:56.251Z,22.68
2023-04-28T01:54:23.757Z,22.66
2023-04-28T01:56:50.086Z,22.65
2023-04-28T01:59:16.702Z,22.62
2023-04-28T02:01:43.275Z,22.63
2023-04-28T02:04:09.799Z,22.64
2023-04-28T02:06:40.240Z,22.68
2023-04-28T02:09:06.696Z,22.66
2023-04-28T02:11:33.015Z,22.70
2023-04-28T02:14:04.036Z,22.69
2023-04-28T02:16:30.411Z,22.69
2023-04-28T02:18:56.826Z,22.70
2023-04-28T02:21:23.694Z,22.70
2023-04-28T02:23:52.565Z,22.69
2023-04-28T02:26:19.188Z,22.68
2023-04-28T02:28:48.987Z,22.67
2023-04-28T02:31:15.760Z,22.65
2023-04-28T02:33:46.741Z,22.63
2023-04-28T02:36:13.467Z,22.62
2023-04-28T02:38:41.488Z,22.62
2023-04-28T02:41:09.512Z,22.67
2023-04-28T02:43:37.337Z,22.70
2023-04-28T02:46:06.706Z,22.71
2023-04-28T02:48:38.105Z,22.71
2023-04-28T02:51:06.557Z,22.70
2023-04-28T02:53:35.055Z,22.68
2023-04-28T02:56:04.351Z,22.67
2023-04-28T02:58:33.285Z,22.66
2023-04-28T03:01:03.467Z,22.65
2023-04-28T03:03:31.662Z,22.64
2023-04-28T03:05:58.708Z,22.63
2023-04-28T03:08:26.115Z,22.62
2023-04-28T03:10:53.480Z,22.60
2023-04-28T03:13:19.802Z,22.59
2023-04-28T03:15:46.344Z,22.59
2023-04-28T03:18:17.050Z,22.56
2023-04-28T03:20:43.601Z,22.53
2023-04-28T03:23:12.754Z,22.51
2023-04-28T03:25:39.077Z,22.49
2023-04-28T03:28:07.934Z,22.49
2023-04-28T03:30:34.543Z,22.48
2023-04-28T03:33:02.301Z,22.47
2023-04-28T03:35:29.707Z,22.44
2023-04-28T03:37:57.392Z,22.43
2023-04-28T03:40:23.935Z,22.42
2023-04-28T03:42:50.244Z,22.41
2023-04-28T03:45:16.750Z,22.40
2023-04-28T03:47:45.611Z,22.38
2023-04-28T03:50:14.134Z,22.37
2023-04-28T03:52:41.489Z,22.38
2023-04-28T03:55:08.020Z,22.35
2023-04-28T03:57:36.682Z,22.39
2023-04-28T04:00:03.326Z,22.42
2023-04-28T04:02:31.404Z,22.42
2023-04-28T04:07:39.139Z,22.43
2023-04-28T04:10:05.885Z,22.42
2023-04-28T04:12:32.332Z,22.39
2023-04-28T04:14:59.027Z,22.39
2023-04-28T04:17:27.535Z,22.36
2023-04-28T04:20:03.440Z,22.36
2023-04-28T04:22:37.700Z,22.36
2023-04-28T04:25:04.333Z,22.36
2023-04-28T04:27:30.950Z,22.34
2023-04-28T04:29:58.914Z,22.33
2023-04-28T04:32:27.185Z,22.31
2023-04-28T04:34:54.890Z,22.28
2023-04-28T04:37:22.522Z,22.29
2023-04-28T04:39:48.947Z,22.28
2023-04-28T04:42:25.018Z,22.26
2023-04-28T04:44:53.262Z,22.25
2023-04-28T04:47:19.602Z,22.26
2023-04-28T04:49:45.922Z,22.25
2023-04-28T04:52:12.335Z,22.24
2023-04-28T04:54:38.957Z,22.24
2023-04-28T04:57:06.594Z,22.23
2023-04-28T04:59:32.917Z,22.20
2023-04-28T05:01:59.542Z,22.20
2023-04-28T05:04:29.123Z,22.15
2023-04-28T05:06:58.194Z,22.18
2023-04-28T05:09:27.141Z,22.17
2023-04-28T05:11:54.057Z,22.17
2023-04-28T05:17:09.021Z,22.17
2023-04-28T05:19:35.587Z,22.22
2023-04-28T05:22:02.210Z,22.24
2023-04-28T05:24:31.744Z,22.26
2023-04-28T05:26:58.291Z,22.26
2023-04-28T05:29:28.222Z,22.27
2023-04-28T05:31:55.852Z,22.24
2023-04-28T05:34:23.250Z,22.24
2023-04-28T05:36:49.983Z,22.23
2023-04-28T05:39:17.297Z,22.22
2023-04-28T05:41:43.602Z,22.20
2023-04-28T05:44:10.356Z,22.18
2023-04-28T05:46:37.354Z,22.19
2023-04-28T05:49:03.707Z,22.19
2023-04-28T05:51:30.167Z,22.17
2023-04-28T05:53:57.264Z,22.18
2023-04-28T05:56:24.621Z,22.17
2023-04-28T05:58:51.549Z,22.17
2023-04-28T06:01:18.261Z,22.16
2023-04-28T06:03:45.358Z,22.16
2023-04-28T06:06:12.934Z,22.16
2023-04-28T06:08:39.698Z,22.16
2023-04-28T06:11:11.359Z,22.14
2023-04-28T06:13:38.934Z,22.13
2023-04-28T06:16:05.566Z,22.12
2023-04-28T06:18:36.663Z,22.14
2023-04-28T06:21:09.328Z,22.12
2023-04-28T06:23:37.286Z,22.13
2023-04-28T06:26:06.055Z,22.12
2023-04-28T06:28:37.548Z,22.12
2023-04-28T06:34:28.765Z,22.12
2023-04-28T06:36:56.563Z,22.14
2023-04-28T06:39:23.512Z,22.15
2023-04-28T06:41:51.805Z,22.15
2023-04-28T06:44:18.621Z,22.14
2023-04-28T06:46:46.729Z,22.18
2023-04-28T06:49:14.015Z,22.16
2023-04-28T06:51:40.364Z,22.19
2023-04-28T06:54:08.314Z,22.19
2023-04-28T06:56:36.575Z,22.18
2023-04-28T06:59:04.356Z,22.17
2023-04-28T07:01:31.280Z,22.19
2023-04-28T07:04:03.057Z,22.20
2023-04-28T07:06:31.802Z,22.19
2023-04-28T07:08:58.174Z,22.19
2023-04-28T07:11:24.949Z,22.21
2023-04-28T07:13:53.913Z,22.20
2023-04-28T07:16:21.978Z,22.20
2023-04-28T07:18:48.327Z,22.18
2023-04-28T07:21:16.126Z,22.18
2023-04-28T07:23:46.335Z,22.18
2023-04-28T07:26:16.201Z,22.18
2023-04-28T07:28:43.603Z,22.17
2023-04-28T07:31:10.464Z,22.20
2023-04-28T07:33:38.849Z,22.21
2023-04-28T07:36:08.758Z,22.23
2023-04-28T07:38:39.019Z,22.19
2023-04-28T07:41:11.173Z,22.21
2023-04-28T07:43:41.155Z,22.19
2023-04-28T07:46:10.147Z,22.18
2023-04-28T07:48:36.630Z,22.17
2023-04-28T07:51:03.127Z,22.17
2023-04-28T07:53:29.456Z,22.08
2023-04-28T07:55:56.960Z,22.11
2023-04-28T07:58:27.037Z,22.15
2023-04-28T08:00:55.788Z,22.13
2023-04-28T08:03:23.773Z,22.11
2023-04-28T08:05:53.426Z,22.14
2023-04-28T08:08:20.126Z,22.17
2023-04-28T08:10:48.337Z,22.17
2023-04-28T08:20:09.074Z,22.17
2023-04-28T08:22:39.117Z,22.17
2023-04-28T08:25:05.677Z,22.17
2023-04-28T08:27:34.083Z,22.18
2023-04-28T08:30:02.046Z,22.18
2023-04-28T08:32:28.485Z,22.16
2023-04-28T08:34:56.851Z,22.17
2023-04-28T08:37:26.070Z,22.19
2023-04-28T08:40:01.114Z,22.20
2023-04-28T08:42:34.274Z,22.20
2023-04-28T08:45:01.640Z,22.21
2023-04-28T08:47:38.528Z,22.20
2023-04-28T08:50:08.185Z,22.21
2023-04-28T08:52:36.134Z,22.22
2023-04-28T08:55:19.952Z,22.23
2023-04-28T08:57:47.453Z,22.23
2023-04-28T09:00:14.109Z,22.23
2023-04-28T09:02:42.837Z,22.24
2023-04-28T09:05:15.816Z,22.23
2023-04-28T09:07:47.783Z,22.23
2023-04-28T09:10:23.868Z,22.24
2023-04-28T09:12:55.511Z,22.23
2023-04-28T09:15:42.059Z,22.23
2023-04-28T09:18:08.692Z,22.25
2023-04-28T09:20:38.347Z,22.25
2023-04-28T09:23:17.802Z,22.27
2023-04-28T09:25:58.218Z,22.31
2023-04-28T09:28:33.014Z,22.32
2023-04-28T09:30:59.662Z,22.34
2023-04-28T09:33:26.611Z,22.37
2023-04-28T09:36:05.624Z,22.36
2023-04-28T09:38:38.214Z,22.36
2023-04-28T09:41:08.064Z,22.37
2023-04-28T09:43:41.728Z,22.37
2023-04-28T09:46:12.280Z,22.32
2023-04-28T09:48:38.674Z,22.35
2023-04-28T09:51:06.101Z,22.35
2023-04-28T09:53:34.933Z,22.37
2023-04-28T09:56:03.998Z,22.38
2023-04-28T09:58:34.695Z,22.35
2023-04-28T10:01:03.584Z,22.36
2023-04-28T10:03:41.932Z,22.36
2023-04-28T10:06:08.833Z,22.36
2023-04-28T10:08:38.136Z,22.34
2023-04-28T10:11:04.464Z,22.34
2023-04-28T10:13:32.636Z,22.32
2023-04-28T10:16:01.573Z,22.33
2023-04-28T10:18:28.060Z,22.31
2023-04-28T10:24:22.669Z,22.33
2023-04-28T10:26:55.588Z,22.34
2023-04-28T10:29:27.273Z,22.34
2023-04-28T10:32:21.625Z,22.34
2023-04-28T10:34:50.178Z,22.33
2023-04-28T10:37:27.076Z,22.33
2023-04-28T10:40:11.902Z,22.39
2023-04-28T10:42:57.188Z,22.51
2023-04-28T10:45:42.146Z,22.67
2023-04-28T10:48:08.620Z,22.74
2023-04-28T10:50:38.990Z,22.77
2023-04-28T10:53:05.757Z,22.82
2023-04-28T10:55:33.945Z,22.82
2023-04-28T10:58:15.366Z,22.85
2023-04-28T11:00:42.999Z,22.84
2023-04-28T11:03:14.516Z,22.85
2023-04-28T11:06:05.133Z,22.86
2023-04-28T11:08:32.076Z,22.86
2023-04-28T11:11:12.649Z,22.87
2023-04-28T11:13:45.370Z,22.88
2023-04-28T11:16:12.803Z,22.90
2023-04-28T11:18:55.746Z,22.91
2023-04-28T11:21:22.641Z,22.95
2023-04-28T11:23:50.301Z,22.97
2023-04-28T11:26:17.160Z,22.97
2023-04-28T11:28:56.920Z,22.93
2023-04-28T11:31:25.113Z,22.92
2023-04-28T11:33:56.817Z,22.87
2023-04-28T11:36:27.264Z,22.84
2023-04-28T11:38:54.737Z,22.82
2023-04-28T11:41:22.467Z,22.80
2023-04-28T11:43:51.627Z,22.78
2023-04-28T11:46:21.271Z,22.77
2023-04-28T11:48:54.717Z,22.75
2023-04-28T11:51:28.156Z,22.73
2023-04-28T11:53:56.995Z,22.70
2023-04-28T11:56:24.032Z,22.68
2023-04-28T11:59:01.780Z,22.68
2023-04-28T12:01:38.945Z,22.68
2023-04-28T12:04:07.007Z,22.69
2023-04-28T12:06:34.751Z,22.69
2023-04-28T12:09:15.048Z,22.70
2023-04-28T12:11:52.284Z,22.70
2023-04-28T12:14:26.258Z,22.71
2023-04-28T12:16:53.348Z,22.71
2023-04-28T12:19:22.571Z,22.73
2023-04-28T12:22:31.553Z,22.73
2023-04-28T12:25:10.868Z,22.73
2023-04-28T12:27:39.395Z,22.71
2023-04-28T12:30:21.462Z,22.72
2023-04-28T12:32:48.876Z,22.71
2023-04-28T12:35:16.843Z,22.71
2023-04-28T12:37:45.810Z,22.70
2023-04-28T12:40:17.280Z,22.71
2023-04-28T12:42:44.544Z,22.71
2023-04-28T12:45:10.935Z,22.72
2023-04-28T12:47:40.827Z,22.74
2023-04-28T12:50:08.961Z,22.74
2023-04-28T12:52:38.592Z,22.74
2023-04-28T12:55:07.165Z,22.74
2023-04-28T12:57:39.109Z,22.75
2023-04-28T13:00:08.325Z,22.74
2023-04-28T13:02:40.320Z,22.75
2023-04-28T13:05:07.317Z,22.76
2023-04-28T13:07:34.164Z,22.75
2023-04-28T13:10:00.731Z,22.71
2023-04-28T13:12:28.209Z,22.75
2023-04-28T13:14:57.826Z,22.73
2023-04-28T13:17:25.463Z,22.73
2023-04-28T13:19:51.806Z,22.71
2023-04-28T13:22:18.289Z,22.70
2023-04-28T13:24:47.240Z,22.70
2023-04-28T13:27:21.152Z,22.68
2023-04-28T13:29:47.843Z,22.68
2023-04-28T13:32:16.991Z,22.69
2023-04-28T13:34:43.960Z,22.69
2023-04-28T13:37:12.492Z,22.74
2023-04-28T13:39:38.848Z,22.82
2023-04-28T13:42:07.868Z,22.89
2023-04-28T13:44:36.489Z,22.89
2023-04-28T13:47:04.280Z,22.93
2023-04-28T13:49:30.864Z,22.93
2023-04-28T13:51:58.418Z,22.91
2023-04-28T13:54:24.872Z,22.92
2023-04-28T13:57:00.023Z,22.92
2023-04-28T13:59:31.920Z,22.92
2023-04-28T14:01:58.234Z,22.92
2023-04-28T14:04:25.184Z,22.91
2023-04-28T14:06:52.183Z,22.93
2023-04-28T14:09:23.281Z,22.89
2023-04-28T14:11:49.598Z,22.90
2023-04-28T14:14:16.246Z,22.88
2023-04-28T14:16:43.600Z,22.88
2023-04-28T14:19:11.308Z,22.83
2023-04-28T14:21:38.028Z,22.82
2023-04-28T14:24:04.665Z,22.78
2023-04-28T14:26:31.191Z,22.78
2023-04-28T14:28:57.830Z,22.79
2023-04-28T14:31:24.777Z,22.78
2023-04-28T14:33:51.307Z,22.80
2023-04-28T14:36:17.645Z,22.83
2023-04-28T14:38:44.295Z,22.79
2023-04-28T14:41:11.180Z,22.78
2023-04-28T14:43:38.033Z,22.77
2023-04-28T14:46:04.763Z,22.76
2023-04-28T14:48:37.819Z,22.76
2023-04-28T14:51:04.133Z,22.86
2023-04-28T14:53:32.923Z,23.02
2023-04-28T14:56:10.860Z,23.13
2023-04-28T14:58:44.625Z,23.26
2023-04-28T15:01:14.159Z,23.39
2023-04-28T15:03:41.075Z,23.46
2023-04-28T15:06:08.153Z,23.47
2023-04-28T15:08:35.057Z,23.47
2023-04-28T15:11:02.170Z,23.46
2023-04-28T15:13:28.632Z,23.46
2023-04-28T15:15:55.278Z,23.45
2023-04-28T15:18:21.919Z,23.43
2023-04-28T15:20:48.988Z,23.44
2023-04-28T15:23:15.417Z,23.43
2023-04-28T15:25:44.534Z,23.43
2023-04-28T15:28:13.039Z,23.42
2023-04-28T15:30:41.730Z,23.43
2023-04-28T15:33:10.655Z,23.43
2023-04-28T15:35:39.203Z,23.42
2023-04-28T15:38:06.739Z,23.42
2023-04-28T15:40:33.082Z,23.42
2023-04-28T15:42:59.407Z,23.43
2023-04-28T15:45:27.635Z,23.44
2023-04-28T15:47:55.384Z,23.44
2023-04-28T15:50:23.112Z,23.47
2023-04-28T15:52:50.170Z,23.44
2023-04-28T15:55:17.054Z,23.45
2023-04-28T15:57:43.388Z,23.41
2023-04-28T16:00:10.204Z,23.40
2023-04-28T16:02:37.414Z,23.36
2023-04-28T16:05:06.045Z,23.36
2023-04-28T16:07:42.245Z,23.48
2023-04-28T16:10:09.734Z,23.57
2023-04-28T16:12:36.531Z,23.76
2023-04-28T16:15:04.360Z,23.82
2023-04-28T16:17:30.960Z,23.97
2023-04-28T16:19:57.490Z,24.04
2023-04-28T16:22:24.472Z,24.13
2023-04-28T16:24:52.278Z,24.19
2023-04-28T16:27:18.669Z,24.18
2023-04-28T16:29:46.120Z,24.11
2023-04-28T16:32:12.516Z,24.06
2023-04-28T16:34:38.898Z,24.04
2023-04-28T16:37:06.142Z,24.00
2023-04-28T16:39:32.458Z,23.97
2023-04-28T16:42:03.117Z,23.94
2023-04-28T16:44:29.935Z,23.90
2023-04-28T16:46:58.398Z,23.91
2023-04-28T16:49:24.733Z,23.88
2023-04-28T16:51:57.738Z,23.84
2023-04-28T16:54:25.125Z,23.90
2023-04-28T16:56:51.769Z,23.82
2023-04-28T16:59:18.700Z,23.77
2023-04-28T17:01:45.716Z,23.76
2023-04-28T17:04:12.660Z,23.74
2023-04-28T17:06:39.252Z,23.73
2023-04-28T17:09:06.007Z,23.70
2023-04-28T17:11:32.520Z,23.68
2023-04-28T17:13:58.973Z,23.64
2023-04-28T17:16:25.956Z,23.62
2023-04-28T17:18:52.968Z,23.59
2023-04-28T17:21:19.304Z,23.58
2023-04-28T17:23:45.653Z,23.55
2023-04-28T17:26:12.222Z,23.54
2023-04-28T17:28:40.787Z,23.54
2023-04-28T17:31:07.486Z,23.52
2023-04-28T17:33:33.945Z,23.51
2023-04-28T17:36:01.795Z,23.49
2023-04-28T17:38:28.103Z,23.47
2023-04-28T17:40:54.421Z,23.47
2023-04-28T17:43:21.667Z,23.44
2023-04-28T17:45:49.107Z,23.42
2023-04-28T17:48:15.701Z,23.43
2023-04-28T17:50:42.188Z,23.45
2023-04-28T17:53:08.514Z,23.54
2023-04-28T17:55:35.085Z,23.57
2023-04-28T17:58:01.393Z,23.63
2023-04-28T18:00:27.733Z,23.67
2023-04-28T18:02:55.580Z,23.70
2023-04-28T18:05:24.202Z,23.71
2023-04-28T18:07:50.966Z,23.74
2023-04-28T18:10:17.346Z,23.76
2023-04-28T18:12:44.248Z,23.79
2023-04-28T18:15:11.584Z,23.80
2023-04-28T18:17:37.930Z,23.81
2023-04-28T18:20:06.911Z,23.81
2023-04-28T18:22:33.330Z,23.82
2023-04-28T18:24:59.786Z,23.85
2023-04-28T18:27:26.408Z,23.86
2023-04-28T18:29:52.744Z,23.86
2023-04-28T18:32:19.182Z,23.85
2023-04-28T18:34:46.189Z,23.80
2023-04-28T18:37:12.522Z,23.80
2023-04-28T18:39:38.860Z,23.81
2023-04-28T18:42:05.495Z,23.83
2023-04-28T18:44:31.853Z,23.82
2023-04-28T18:46:58.590Z,23.81
2023-04-28T18:49:25.688Z,23.84
2023-04-28T18:51:52.017Z,23.86
2023-04-28T18:54:20.178Z,23.90
2023-04-28T18:56:48.435Z,24.02
2023-04-28T18:59:14.842Z,24.06
2023-04-28T19:01:41.178Z,24.11
2023-04-28T19:04:07.652Z,24.13
2023-04-28T19:06:36.072Z,24.14
2023-04-28T19:09:02.571Z,24.17
2023-04-28T19:11:28.889Z,24.19
2023-04-28T19:13:55.632Z,24.18
2023-04-28T19:16:21.987Z,24.19
2023-04-28T19:18:48.863Z,24.19
2023-04-28T19:21:15.738Z,24.21
2023-04-28T19:23:42.199Z,24.17
2023-04-28T19:26:09.008Z,24.15
2023-04-28T19:28:35.909Z,24.17
2023-04-28T19:31:02.292Z,24.15
2023-04-28T19:33:28.707Z,24.18
2023-04-28T19:35:55.398Z,24.12
2023-04-28T19:38:22.915Z,24.09
2023-04-28T19:40:50.415Z,24.07
2023-04-28T19:43:17.966Z,24.06
2023-04-28T19:45:44.996Z,24.04
2023-04-28T19:48:11.394Z,24.01
2023-04-28T19:50:38.089Z,24.03
2023-04-28T19:53:04.446Z,24.00
2023-04-28T19:55:31.855Z,23.99
2023-04-28T19:58:00.149Z,23.98
2023-04-28T20:00:26.647Z,23.95
2023-04-28T20:02:53.108Z,23.93
2023-04-28T20:05:22.876Z,23.90
2023-04-28T20:07:49.249Z,23.89
2023-04-28T20:10:15.586Z,23.86
2023-04-28T20:12:41.896Z,23.84
2023-04-28T20:15:10.997Z,23.81
2023-04-28T20:17:37.338Z,23.74
2023-04-28T20:20:05.866Z,23.69
2023-04-28T20:22:32.180Z,23.65
2023-04-28T20:25:00.618Z,23.63
2023-04-28T20:27:27.198Z,23.58
2023-04-28T20:29:53.688Z,23.56
2023-04-28T20:32:20.011Z,23.52
2023-04-28T20:34:46.350Z,23.51
2023-04-28T20:37:13.475Z,23.50
2023-04-28T20:39:39.799Z,23.46
2023-04-28T20:42:06.123Z,23.46
2023-04-28T20:44:32.529Z,23.43
2023-04-28T20:47:01.301Z,23.43
2023-04-28T20:49:28.380Z,23.38
2023-04-28T20:51:59.116Z,23.37
2023-04-28T20:54:26.052Z,23.36
2023-04-28T20:56:52.366Z,23.36
2023-04-28T20:59:18.695Z,23.37
2023-04-28T21:01:45.131Z,23.38
2023-04-28T21:04:11.627Z,23.35
2023-04-28T21:06:38.311Z,23.34
2023-04-28T21:09:04.875Z,23.31
2023-04-28T21:11:31.214Z,23.31
2023-04-28T21:13:57.540Z,23.30
2023-04-28T21:16:23.852Z,23.29
2023-04-28T21:18:50.393Z,23.28
2023-04-28T21:21:16.702Z,23.26
2023-04-28T21:23:43.188Z,23.25
2023-04-28T21:26:09.511Z,23.23
2023-04-28T21:28:35.950Z,23.21
2023-04-28T21:31:02.470Z,23.18
2023-04-28T21:33:28.988Z,23.17
2023-04-28T21:35:55.507Z,23.19
2023-04-28T21:38:21.918Z,23.14
2023-04-28T21:40:49.166Z,23.14
2023-04-28T21:43:15.579Z,23.15
2023-04-28T21:45:42.152Z,23.14
2023-04-28T21:48:08.563Z,23.14
2023-04-28T21:50:36.058Z,23.13
2023-04-28T21:53:02.376Z,23.15
2023-04-28T21:55:28.785Z,23.12
2023-04-28T21:57:58.796Z,23.13
2023-04-28T22:00:27.961Z,23.12
2023-04-28T22:02:56.123Z,23.11
2023-04-28T22:05:24.296Z,23.13
2023-04-28T22:07:51.609Z,23.07
2023-04-28T22:10:18.870Z,23.08
2023-04-28T22:12:45.175Z,23.10
2023-04-28T22:15:11.565Z,23.07
2023-04-28T22:17:37.964Z,23.06
2023-04-28T22:20:04.715Z,23.05
2023-04-28T22:22:31.519Z,23.05
2023-04-28T22:24:58.356Z,23.05
2023-04-28T22:27:24.902Z,23.04
2023-04-28T22:29:51.425Z,23.07
2023-04-28T22:32:18.323Z,23.06
2023-04-28T22:34:45.128Z,23.05
2023-04-28T22:37:11.888Z,23.04
2023-04-28T22:39:38.231Z,23.04
2023-04-28T22:42:04.926Z,23.02
2023-04-28T22:44:31.305Z,23.01
2023-04-28T22:46:57.984Z,23.01
2023-04-28T22:49:28.412Z,23.01
2023-04-28T22:51:54.727Z,23.00
2023-04-28T22:54:21.054Z,23.00
2023-04-28T22:56:47.363Z,22.98
2023-04-28T22:59:13.666Z,22.95
2023-04-28T23:01:40.192Z,22.96
2023-04-28T23:04:06.734Z,22.95
2023-04-28T23:06:33.252Z,22.89
2023-04-28T23:08:59.566Z,22.86
2023-04-28T23:11:26.307Z,22.78
2023-04-28T23:13:52.635Z,22.78
2023-04-28T23:16:19.034Z,22.75
2023-04-28T23:18:45.370Z,22.75
2023-04-28T23:21:12.340Z,22.73
2023-04-28T23:23:38.653Z,22.71
2023-04-28T23:26:05.520Z,22.69
2023-04-28T23:28:31.996Z,22.69
2023-04-28T23:30:58.353Z,22.68
2023-04-28T23:33:24.685Z,22.67
2023-04-28T23:35:51.366Z,22.65
2023-04-28T23:38:17.679Z,22.63
2023-04-28T23:40:44.028Z,22.63
2023-04-28T23:43:10.336Z,22.62
2023-04-28T23:45:36.712Z,22.62
2023-04-28T23:48:03.068Z,22.61
2023-04-28T23:50:29.481Z,22.60
2023-04-28T23:52:55.824Z,22.59
2023-04-28T23:55:22.163Z,22.59
2023-04-28T23:57:48.479Z,22.58
